createdAt,value
2018-06-12T00:00:13.672Z,15.40
2018-06-12T00:03:12.671Z,15.50
2018-06-12T00:06:10.605Z,15.50
2018-06-12T00:09:08.648Z,15.50
2018-06-12T00:12:06.728Z,15.50
2018-06-12T00:15:04.111Z,15.40
2018-06-12T00:18:01.458Z,15.30
2018-06-12T00:20:59.348Z,15.30
2018-06-12T00:23:57.444Z,15.10
2018-06-12T00:26:55.719Z,15.00
2018-06-12T00:29:53.419Z,15.00
2018-06-12T00:32:51.401Z,15.00
2018-06-12T00:35:49.023Z,15.20
2018-06-12T00:38:47.167Z,15.10
2018-06-12T00:41:45.213Z,14.80
2018-06-12T00:44:43.399Z,14.70
2018-06-12T00:47:41.307Z,14.80
2018-06-12T00:50:39.375Z,14.80
2018-06-12T00:53:37.224Z,14.70
2018-06-12T00:56:46.321Z,14.80
2018-06-12T00:59:43.603Z,14.80
2018-06-12T01:02:41.575Z,14.70
2018-06-12T01:05:38.745Z,14.70
2018-06-12T01:08:36.807Z,14.50
2018-06-12T01:11:34.825Z,14.30
2018-06-12T01:14:32.728Z,14.20
2018-06-12T01:17:30.739Z,14.00
2018-06-12T01:20:28.799Z,13.80
2018-06-12T01:23:26.816Z,13.70
2018-06-12T01:26:24.719Z,13.80
2018-06-12T01:29:22.807Z,13.70
2018-06-12T01:32:21.043Z,13.80
2018-06-12T01:35:18.914Z,13.80
2018-06-12T01:38:17.216Z,13.70
2018-06-12T01:41:15.159Z,13.70
2018-06-12T01:44:13.043Z,13.70
2018-06-12T01:47:11.152Z,13.80
2018-06-12T01:50:08.907Z,13.70
2018-06-12T01:53:06.926Z,13.80
2018-06-12T01:56:04.965Z,13.80
2018-06-12T01:59:02.478Z,13.90
2018-06-12T02:02:00.094Z,13.90
2018-06-12T02:04:58.138Z,13.70
2018-06-12T02:07:56.196Z,13.70
2018-06-12T02:10:54.264Z,13.70
2018-06-12T02:13:52.263Z,13.80
2018-06-12T02:16:50.332Z,13.70
2018-06-12T02:19:48.312Z,13.90
2018-06-12T02:22:46.457Z,13.80
2018-06-12T02:25:44.521Z,13.60
2018-06-12T02:28:41.905Z,13.60
2018-06-12T02:31:38.960Z,13.60
2018-06-12T02:34:37.123Z,13.70
2018-06-12T02:37:35.277Z,13.80
2018-06-12T02:40:33.279Z,13.90
2018-06-12T02:43:31.410Z,14.00
2018-06-12T02:46:29.532Z,14.00
2018-06-12T02:49:27.466Z,13.90
2018-06-12T02:52:25.639Z,13.90
2018-06-12T02:55:23.532Z,14.00
2018-06-12T02:58:21.561Z,14.00
2018-06-12T03:01:19.549Z,13.90
2018-06-12T03:04:17.547Z,14.00
2018-06-12T03:07:15.367Z,13.70
2018-06-12T03:10:13.333Z,13.90
2018-06-12T03:13:11.268Z,13.90
2018-06-12T03:35:39.621Z,14.00
2018-06-12T03:38:37.504Z,13.90
2018-06-12T03:41:35.496Z,14.10
2018-06-12T03:44:33.470Z,14.20
2018-06-12T03:47:31.196Z,14.00
2018-06-12T03:50:28.868Z,14.10
2018-06-12T03:53:26.923Z,14.10
2018-06-12T03:56:24.804Z,14.20
2018-06-12T03:59:22.791Z,14.20
2018-06-12T04:02:20.041Z,14.30
2018-06-12T04:08:08.344Z,14.40
2018-06-12T04:11:05.493Z,14.40
2018-06-12T04:14:02.970Z,14.50
2018-06-12T04:17:01.030Z,14.50
2018-06-12T04:19:58.286Z,14.50
2018-06-12T04:22:57.359Z,14.40
2018-06-12T04:25:55.116Z,14.60
2018-06-12T04:28:54.219Z,14.50
2018-06-12T04:31:52.114Z,14.60
2018-06-12T04:34:49.510Z,14.60
2018-06-12T04:37:47.155Z,14.70
2018-06-12T04:40:44.935Z,14.50
2018-06-12T04:43:42.720Z,14.50
2018-06-12T04:46:40.572Z,14.50
2018-06-12T04:49:38.591Z,14.60
2018-06-12T04:52:36.436Z,14.70
2018-06-12T04:55:34.517Z,14.80
2018-06-12T04:58:32.391Z,14.70
2018-06-12T05:01:30.117Z,14.50
2018-06-12T05:04:28.066Z,14.40
2018-06-12T05:07:25.871Z,14.50
2018-06-12T05:10:23.722Z,14.70
2018-06-12T05:13:21.539Z,15.00
2018-06-12T05:16:19.234Z,15.10
2018-06-12T05:19:17.196Z,14.90
2018-06-12T05:22:14.894Z,14.80
2018-06-12T05:25:12.755Z,14.60
2018-06-12T05:28:10.504Z,14.50
2018-06-12T05:31:08.425Z,14.50
2018-06-12T05:34:05.527Z,14.40
2018-06-12T05:37:03.320Z,14.40
2018-06-12T05:40:01.196Z,14.60
2018-06-12T05:42:58.959Z,14.60
2018-06-12T05:45:56.583Z,14.70
2018-06-12T05:48:54.744Z,14.90
2018-06-12T05:51:52.242Z,15.10
2018-06-12T05:54:50.150Z,15.00
2018-06-12T05:57:47.913Z,14.80
2018-06-12T06:00:46.546Z,14.80
2018-06-12T06:03:44.275Z,14.80
2018-06-12T06:06:42.003Z,14.80
2018-06-12T06:09:39.802Z,14.80
2018-06-12T06:12:37.533Z,14.80
2018-06-12T06:15:36.354Z,14.90
2018-06-12T06:18:34.165Z,15.10
2018-06-12T06:21:32.028Z,15.30
2018-06-12T06:24:29.949Z,15.40
2018-06-12T06:27:27.655Z,15.30
2018-06-12T06:30:25.755Z,15.30
2018-06-12T06:33:24.221Z,15.20
2018-06-12T06:36:21.751Z,15.10
2018-06-12T06:39:20.782Z,15.60
2018-06-12T06:42:18.845Z,15.40
2018-06-12T06:45:16.461Z,15.40
2018-06-12T06:48:14.456Z,15.50
2018-06-12T06:51:12.035Z,15.80
2018-06-12T06:54:09.851Z,15.80
2018-06-12T06:57:07.753Z,16.10
2018-06-12T07:00:06.200Z,16.40
2018-06-12T07:03:03.744Z,17.90
2018-06-12T07:06:01.543Z,19.00
2018-06-12T07:08:59.363Z,19.20
2018-06-12T07:11:57.152Z,19.90
2018-06-12T07:14:55.049Z,20.90
2018-06-12T07:17:53.882Z,21.00
2018-06-12T07:21:33.492Z,21.10
2018-06-12T07:24:31.261Z,21.70
2018-06-12T07:27:28.944Z,21.00
2018-06-12T07:30:26.833Z,21.70
2018-06-12T07:33:24.280Z,22.20
2018-06-12T07:36:22.144Z,21.50
2018-06-12T07:39:22.268Z,21.30
2018-06-12T07:42:20.057Z,21.20
2018-06-12T07:45:18.109Z,20.40
2018-06-12T07:48:15.853Z,19.70
2018-06-12T07:51:13.682Z,20.20
2018-06-12T07:54:12.289Z,20.30
2018-06-12T07:57:10.246Z,20.00
2018-06-12T08:00:08.081Z,19.50
2018-06-12T08:03:05.923Z,19.20
2018-06-12T08:06:03.675Z,19.20
2018-06-12T08:09:01.305Z,19.70
2018-06-12T08:11:59.081Z,18.90
2018-06-12T08:14:56.674Z,19.20
2018-06-12T08:17:55.320Z,20.10
2018-06-12T08:20:53.124Z,19.80
2018-06-12T08:23:50.924Z,20.00
2018-06-12T08:26:48.981Z,21.00
2018-06-12T08:29:46.877Z,21.80
2018-06-12T08:32:44.442Z,22.90
2018-06-12T08:35:42.067Z,22.80
2018-06-12T08:38:39.770Z,21.60
2018-06-12T08:41:37.665Z,21.30
2018-06-12T08:44:36.210Z,21.50
2018-06-12T08:47:34.122Z,21.90
2018-06-12T08:50:31.766Z,22.40
2018-06-12T08:53:29.429Z,22.10
2018-06-12T08:56:27.023Z,22.00
2018-06-12T08:59:24.821Z,22.20
2018-06-12T09:02:22.629Z,22.60
2018-06-12T09:05:20.237Z,22.60
2018-06-12T09:08:18.966Z,22.40
2018-06-12T09:11:17.747Z,23.60
2018-06-12T09:14:17.737Z,23.40
2018-06-12T09:17:15.633Z,22.90
2018-06-12T09:20:13.392Z,22.70
2018-06-12T09:23:11.287Z,23.60
2018-06-12T09:26:09.429Z,23.70
2018-06-12T09:29:07.315Z,23.70
2018-06-12T09:32:05.055Z,23.90
2018-06-12T09:35:03.091Z,24.50
2018-06-12T09:38:00.975Z,24.20
2018-06-12T09:40:58.736Z,25.10
2018-06-12T09:43:57.052Z,24.20
2018-06-12T09:46:55.402Z,23.30
2018-06-12T09:49:53.197Z,21.80
2018-06-12T09:52:50.923Z,22.50
2018-06-12T09:55:48.760Z,23.40
2018-06-12T09:58:46.632Z,23.40
2018-06-12T10:01:44.250Z,23.50
2018-06-12T10:04:42.759Z,23.70
2018-06-12T10:07:40.389Z,22.20
2018-06-12T10:10:38.258Z,21.90
2018-06-12T10:13:37.104Z,21.80
2018-06-12T10:16:34.750Z,21.80
2018-06-12T10:19:32.928Z,21.90
2018-06-12T10:22:30.261Z,21.70
2018-06-12T10:25:27.964Z,22.00
2018-06-12T10:28:25.982Z,22.60
2018-06-12T10:31:24.657Z,23.00
2018-06-12T10:34:22.795Z,22.70
2018-06-12T10:37:21.513Z,23.70
2018-06-12T10:40:20.207Z,23.20
2018-06-12T10:43:18.200Z,24.20
2018-06-12T10:46:16.201Z,24.20
2018-06-12T10:49:14.018Z,23.20
2018-06-12T10:52:11.798Z,22.50
2018-06-12T10:55:09.601Z,22.90
2018-06-12T10:58:07.508Z,23.20
2018-06-12T11:01:05.078Z,23.90
2018-06-12T11:04:02.904Z,24.50
2018-06-12T11:07:00.609Z,25.00
2018-06-12T11:09:58.259Z,25.80
2018-06-12T11:12:56.337Z,24.20
2018-06-12T11:15:54.025Z,24.50
2018-06-12T11:18:51.793Z,24.10
2018-06-12T11:21:49.467Z,23.80
2018-06-12T11:24:47.437Z,24.00
2018-06-12T11:27:45.215Z,24.10
2018-06-12T11:30:42.873Z,23.90
2018-06-12T11:33:40.787Z,23.20
2018-06-12T11:36:38.604Z,24.00
2018-06-12T11:39:36.395Z,25.10
2018-06-12T11:42:34.223Z,25.70
2018-06-12T11:45:32.050Z,24.90
2018-06-12T11:48:30.516Z,24.50
2018-06-12T11:51:28.716Z,24.70
2018-06-12T11:54:26.370Z,24.40
2018-06-12T11:57:24.159Z,24.90
2018-06-12T12:00:23.081Z,25.40
2018-06-12T12:03:20.939Z,24.90
2018-06-12T12:06:18.726Z,25.50
2018-06-12T12:09:16.339Z,25.40
2018-06-12T12:12:14.145Z,25.40
2018-06-12T12:15:12.043Z,25.90
2018-06-12T12:18:09.809Z,25.40
2018-06-12T12:21:07.526Z,25.40
2018-06-12T12:24:05.359Z,25.20
2018-06-12T12:27:03.229Z,25.20
2018-06-12T12:30:01.014Z,26.20
2018-06-12T12:32:58.870Z,26.20
2018-06-12T12:35:56.511Z,26.10
2018-06-12T12:38:54.291Z,25.60
2018-06-12T12:41:52.044Z,24.30
2018-06-12T12:44:50.660Z,24.50
2018-06-12T12:47:48.304Z,23.90
2018-06-12T12:50:46.091Z,23.90
2018-06-12T12:53:43.712Z,24.70
2018-06-12T12:56:41.636Z,25.30
2018-06-12T12:59:39.742Z,26.20
2018-06-12T13:02:37.420Z,25.70
2018-06-12T13:05:35.110Z,25.40
2018-06-12T13:08:32.971Z,25.10
2018-06-12T13:11:30.604Z,24.20
2018-06-12T13:14:28.330Z,24.90
2018-06-12T13:17:26.151Z,25.50
2018-06-12T13:20:23.796Z,25.10
2018-06-12T13:23:21.040Z,25.90
2018-06-12T13:26:18.812Z,25.90
2018-06-12T13:29:16.827Z,25.30
2018-06-12T13:32:14.502Z,25.80
2018-06-12T13:35:12.232Z,26.00
2018-06-12T13:38:10.150Z,24.80
2018-06-12T13:41:08.206Z,24.20
2018-06-12T13:44:06.068Z,25.00
2018-06-12T13:47:04.043Z,24.80
2018-06-12T13:50:01.706Z,24.70
2018-06-12T13:52:59.395Z,25.00
2018-06-12T13:55:58.466Z,24.60
2018-06-12T13:58:56.019Z,24.50
2018-06-12T14:01:53.770Z,25.00
2018-06-12T14:04:53.161Z,25.00
2018-06-12T14:07:52.203Z,25.30
2018-06-12T14:10:49.871Z,24.20
2018-06-12T14:13:47.742Z,24.80
2018-06-12T14:16:47.023Z,24.40
2018-06-12T14:19:45.029Z,24.80
2018-06-12T14:22:42.829Z,23.90
2018-06-12T14:25:40.504Z,24.20
2018-06-12T14:28:39.136Z,24.90
2018-06-12T14:31:36.793Z,25.00
2018-06-12T14:34:34.613Z,24.30
2018-06-12T14:37:32.394Z,23.70
2018-06-12T14:40:31.153Z,24.20
2018-06-12T14:43:28.788Z,24.50
2018-06-12T14:46:27.687Z,24.60
2018-06-12T14:49:25.156Z,23.90
2018-06-12T14:52:22.939Z,24.30
2018-06-12T14:55:20.693Z,24.70
2018-06-12T14:58:18.488Z,25.00
2018-06-12T15:01:16.495Z,24.70
2018-06-12T15:04:13.964Z,24.00
2018-06-12T15:07:11.452Z,23.80
2018-06-12T15:10:09.295Z,23.60
2018-06-12T15:13:08.213Z,23.30
2018-06-12T15:16:05.933Z,22.70
2018-06-12T15:19:04.057Z,23.20
2018-06-12T15:22:01.751Z,23.40
2018-06-12T15:24:59.788Z,23.90
2018-06-12T15:27:57.835Z,23.60
2018-06-12T15:30:55.079Z,23.50
2018-06-12T15:33:53.082Z,23.40
2018-06-12T15:36:51.855Z,22.70
2018-06-12T15:39:49.275Z,22.60
2018-06-12T15:42:46.889Z,22.70
2018-06-12T15:45:44.792Z,22.80
2018-06-12T15:48:41.966Z,23.10
2018-06-12T15:51:39.773Z,22.80
2018-06-12T15:54:37.497Z,22.80
2018-06-12T15:57:35.295Z,22.50
2018-06-12T16:00:33.092Z,22.70
2018-06-12T16:03:31.026Z,22.30
2018-06-12T16:06:28.915Z,22.20
2018-06-12T16:09:28.560Z,22.20
2018-06-12T16:12:26.177Z,22.50
2018-06-12T16:15:23.680Z,22.40
2018-06-12T16:18:21.555Z,22.00
2018-06-12T16:21:19.245Z,21.60
2018-06-12T16:24:17.283Z,21.20
2018-06-12T16:27:14.984Z,21.00
2018-06-12T16:30:12.879Z,21.30
2018-06-12T16:33:10.005Z,21.20
2018-06-12T16:38:57.396Z,20.70
2018-06-12T16:41:55.297Z,20.90
2018-06-12T16:44:55.003Z,20.90
2018-06-12T16:47:52.822Z,20.60
2018-06-12T16:50:52.635Z,20.90
2018-06-12T16:53:50.460Z,21.20
2018-06-12T16:56:48.023Z,21.20
2018-06-12T16:59:45.625Z,20.70
2018-06-12T17:02:43.406Z,21.10
2018-06-12T17:05:41.163Z,20.90
2018-06-12T17:08:39.119Z,21.00
2018-06-12T17:11:37.111Z,21.00
2018-06-12T17:14:34.934Z,21.00
2018-06-12T17:17:32.646Z,20.90
2018-06-12T17:20:30.533Z,21.00
2018-06-12T17:23:29.146Z,21.00
2018-06-12T17:26:27.051Z,20.80
2018-06-12T17:29:26.823Z,20.80
2018-06-12T17:32:24.675Z,20.50
2018-06-12T17:35:23.440Z,20.50
2018-06-12T17:38:22.293Z,20.50
2018-06-12T17:41:21.105Z,20.40
2018-06-12T17:44:18.887Z,20.10
2018-06-12T17:47:16.707Z,19.80
2018-06-12T17:50:14.465Z,19.70
2018-06-12T17:53:12.204Z,19.50
2018-06-12T17:56:09.887Z,19.40
2018-06-12T17:59:07.671Z,19.50
2018-06-12T18:02:05.536Z,19.50
2018-06-12T18:05:03.299Z,19.40
2018-06-12T18:08:01.019Z,19.30
2018-06-12T18:10:58.750Z,19.10
2018-06-12T18:13:59.614Z,19.00
2018-06-12T18:16:57.423Z,19.10
2018-06-12T18:20:01.201Z,19.10
2018-06-12T18:22:58.754Z,18.90
2018-06-12T18:25:56.590Z,18.70
2018-06-12T18:28:54.407Z,18.60
2018-06-12T18:31:52.209Z,18.70
2018-06-12T18:34:50.025Z,18.50
2018-06-12T18:37:47.715Z,18.50
2018-06-12T18:40:45.563Z,18.40
2018-06-12T18:43:43.454Z,18.40
2018-06-12T18:46:41.221Z,18.30
2018-06-12T18:49:39.021Z,18.20
2018-06-12T18:52:36.861Z,18.20
2018-06-12T19:14:54.811Z,18.10
2018-06-12T19:17:52.418Z,18.00
2018-06-12T19:20:50.191Z,18.10
2018-06-12T19:23:47.835Z,17.80
2018-06-12T19:26:47.963Z,17.70
2018-06-12T19:29:45.489Z,17.60
2018-06-12T19:32:44.245Z,17.50
2018-06-12T19:35:43.166Z,17.30
2018-06-12T19:38:41.898Z,17.40
2018-06-12T19:41:40.625Z,17.30
2018-06-12T19:44:38.253Z,17.30
2018-06-12T19:47:35.909Z,17.30
2018-06-12T19:50:33.728Z,17.40
2018-06-12T19:53:31.463Z,17.40
2018-06-12T19:56:29.253Z,17.40
2018-06-12T19:59:27.127Z,17.30
2018-06-12T20:02:25.923Z,17.20
2018-06-12T20:05:24.555Z,17.20
2018-06-12T20:08:22.224Z,17.20
2018-06-12T20:11:20.001Z,17.20
2018-06-12T20:14:17.783Z,17.20
2018-06-12T20:17:15.521Z,17.10
2018-06-12T20:20:13.240Z,17.20
2018-06-12T20:23:10.964Z,17.10
2018-06-12T20:26:08.652Z,17.10
2018-06-12T20:29:06.588Z,17.10
2018-06-12T20:32:04.135Z,17.10
2018-06-12T20:35:03.127Z,17.10
2018-06-12T20:38:00.813Z,17.00
2018-06-12T20:41:06.674Z,17.00
2018-06-12T20:44:04.255Z,17.00
2018-06-12T20:47:01.907Z,16.90
2018-06-12T20:50:00.648Z,16.90
2018-06-12T20:52:59.376Z,16.90
2018-06-12T20:55:57.107Z,16.80
2018-06-12T20:58:54.836Z,16.70
2018-06-12T21:01:52.597Z,16.60
2018-06-12T21:04:50.690Z,16.60
2018-06-12T21:07:48.323Z,16.50
2018-06-12T21:10:45.948Z,16.40
2018-06-12T21:13:43.207Z,16.40
2018-06-12T21:16:40.826Z,16.20
2018-06-12T21:19:38.548Z,16.20
2018-06-12T21:22:36.314Z,16.20
2018-06-12T21:25:34.066Z,16.20
2018-06-12T21:28:31.809Z,16.00
2018-06-12T21:31:29.835Z,16.00
2018-06-12T21:34:27.490Z,15.90
2018-06-12T21:37:25.085Z,15.90
2018-06-12T21:40:22.907Z,15.90
2018-06-12T21:43:20.422Z,15.80
2018-06-12T21:46:18.199Z,15.80
2018-06-12T21:49:15.971Z,15.70
2018-06-12T21:52:13.740Z,15.70
2018-06-12T21:55:11.382Z,15.60
2018-06-12T21:58:09.133Z,15.60
2018-06-12T22:01:07.018Z,15.50
2018-06-12T22:04:04.683Z,15.60
2018-06-12T22:07:02.352Z,15.50
2018-06-12T22:10:00.117Z,15.50
2018-06-12T22:12:57.707Z,15.60
2018-06-12T22:15:55.607Z,15.50
2018-06-12T22:18:53.463Z,15.40
2018-06-12T22:21:51.463Z,15.40
2018-06-12T22:24:49.300Z,15.30
2018-06-12T22:27:47.030Z,15.30
2018-06-12T22:30:44.826Z,15.20
2018-06-12T22:33:42.699Z,15.20
2018-06-12T22:36:40.627Z,15.20
2018-06-12T22:39:38.391Z,15.30
2018-06-12T22:42:36.119Z,15.30
2018-06-12T22:45:33.889Z,15.20
2018-06-12T22:48:31.687Z,15.30
2018-06-12T22:51:29.513Z,15.20
2018-06-12T22:54:27.180Z,15.30
2018-06-12T22:57:25.243Z,15.20
2018-06-12T23:00:23.332Z,15.20
2018-06-12T23:03:21.341Z,15.20
2018-06-12T23:06:19.331Z,15.20
2018-06-12T23:09:16.762Z,15.00
2018-06-12T23:12:14.319Z,15.00
2018-06-12T23:15:12.112Z,15.10
2018-06-12T23:18:10.231Z,15.10
2018-06-12T23:21:19.886Z,15.20
2018-06-12T23:24:17.865Z,15.10
2018-06-12T23:27:15.722Z,15.20
2018-06-12T23:30:13.503Z,15.10
2018-06-12T23:33:11.337Z,15.10
2018-06-12T23:36:09.239Z,15.00
2018-06-12T23:39:09.112Z,15.00
2018-06-12T23:42:06.810Z,15.00
2018-06-12T23:45:04.436Z,15.00
2018-06-12T23:48:02.212Z,15.00
2018-06-12T23:51:00.022Z,14.90
2018-06-12T23:56:47.340Z,14.90
2018-06-12T23:59:45.289Z,15.00
